Aviation Digital Data Service (ADDS)

Output produced by METARs form (0354 UTC 01 September 2015)
found at http://aviationweather.gov/adds/metars/
 
KISO 312352Z 0100/0124 VRB03KT 5SM BR VCSH SCT015 BKN025 
     FM010200 00000KT 5SM BR BKN010 
     FM010530 00000KT 3SM BR OVC007 
     FM010800 00000KT 1SM BR OVC004 
     FM011400 VRB03KT P6SM BKN025 AMD LTD TO CLD VIS AND WIND